Time;durP1;ratioP1;P1;durP2;ratioP2;P2;SDS_P1;SDS_P2;PMS_P1;PMS_P2;Temp;Humidity;BMP_temperature;BMP_pressure;BME280_temperature;BME280_humidity;BME280_pressure;Samples;Min_cycle;Max_cycle;Signal;HPM_P1;HPM_P2
2022/04/23 00:00:23;;;;;;;3.60;3.30;;;11.80;99.90;;;;;;5006725;28;20170;-57
2022/04/23 00:02:49;;;;;;;3.60;3.30;;;11.80;99.90;;;;;;5005868;28;20227;-57
2022/04/23 00:05:14;;;;;;;3.87;3.57;;;11.80;99.90;;;;;;5007542;28;20626;-59
2022/04/23 00:07:40;;;;;;;3.97;3.63;;;11.90;99.90;;;;;;5014302;28;20227;-57
2022/04/23 00:10:06;;;;;;;3.70;3.40;;;11.80;99.90;;;;;;5015060;28;20665;-59
2022/04/23 00:12:32;;;;;;;3.60;3.30;;;11.90;99.90;;;;;;5013593;28;20177;-61
2022/04/23 00:14:57;;;;;;;4.20;3.90;;;11.90;99.90;;;;;;5014378;28;20255;-60
2022/04/23 00:17:23;;;;;;;3.93;3.63;;;11.90;99.90;;;;;;5015529;28;20570;-60
2022/04/23 00:19:48;;;;;;;4.40;4.00;;;11.70;99.90;;;;;;4997903;28;20779;-58
2022/04/23 00:22:17;;;;;;;4.43;4.03;;;11.60;99.90;;;;;;5015230;28;20184;-54
2022/04/23 00:24:43;;;;;;;4.50;4.10;;;11.50;99.90;;;;;;5015300;28;20164;-55
2022/04/23 00:27:09;;;;;;;4.67;4.27;;;11.50;99.90;;;;;;5015277;28;20255;-58
2022/04/23 00:29:35;;;;;;;5.10;4.60;;;11.40;99.90;;;;;;5015218;28;20689;-60
2022/04/23 00:32:03;;;;;;;4.77;4.37;;;11.30;99.90;;;;;;5015251;28;20199;-59
2022/04/23 00:34:28;;;;;;;5.43;4.93;;;11.20;99.90;;;;;;5014818;28;20186;-61
2022/04/23 00:36:54;;;;;;;5.53;5.03;;;13.40;99.90;;;;;;5015202;28;20188;-60
2022/04/23 00:39:20;;;;;;;5.50;4.90;;;11.20;99.90;;;;;;5015196;28;20239;-58
2022/04/23 00:41:46;;;;;;;5.00;4.60;;;11.20;99.90;;;;;;5015025;28;20168;-59
2022/04/23 00:44:15;;;;;;;5.63;5.10;;;12.40;99.90;;;;;;5014628;28;20195;-60
2022/04/23 00:46:42;;;;;;;5.27;4.77;;;11.20;99.90;;;;;;5014988;28;20184;-60
2022/04/23 00:49:08;;;;;;;5.10;4.63;;;11.30;99.90;;;;;;5014986;28;20207;-59
2022/04/23 00:51:34;;;;;;;4.83;4.43;;;11.40;99.90;;;;;;5014875;28;20176;-61
2022/04/23 00:54:07;;;;;;;5.00;4.53;;;11.40;99.90;;;;;;5014395;28;20575;-58
2022/04/23 00:56:34;;;;;;;5.60;5.10;;;11.50;99.90;;;;;;5014824;28;20176;-58
2022/04/23 00:59:11;;;;;;;5.33;4.83;;;11.60;99.90;;;;;;5014107;28;20219;-60
2022/04/23 01:01:37;;;;;;;4.70;4.30;;;11.60;99.90;;;;;;5014734;28;20258;-57
2022/04/23 01:04:02;;;;;;;5.57;5.07;;;11.60;99.90;;;;;;5014302;28;20223;-58
2022/04/23 01:06:34;;;;;;;5.47;4.97;;;11.70;99.90;;;;;;5014606;28;20183;-59
2022/04/23 01:09:03;;;;;;;5.40;4.90;;;11.70;99.90;;;;;;5014464;28;20219;-59
2022/04/23 01:11:29;;;;;;;5.60;5.10;;;11.60;99.90;;;;;;5014466;28;20243;-59
2022/04/23 01:13:55;;;;;;;5.83;5.20;;;11.50;99.90;;;;;;5014092;28;20742;-60
2022/04/23 01:16:21;;;;;;;5.60;5.10;;;11.40;99.90;;;;;;5014436;28;20389;-58
2022/04/23 01:18:46;;;;;;;5.53;5.03;;;11.40;99.90;;;;;;5015570;28;20176;-54
2022/04/23 01:21:13;;;;;;;5.50;5.00;;;11.30;99.90;;;;;;5014424;28;20184;-60
2022/04/23 01:23:44;;;;;;;6.80;5.43;;;11.30;99.90;;;;;;5013907;28;20220;-59
2022/04/23 01:26:10;;;;;;;6.10;5.50;;;11.30;99.90;;;;;;5014320;28;20184;-57
2022/04/23 01:28:36;;;;;;;6.17;5.60;;;11.30;99.90;;;;;;5014205;28;20254;-58
2022/04/23 01:31:06;;;;;;;6.13;5.53;;;11.30;99.90;;;;;;5014189;28;20173;-61
2022/04/23 01:33:35;;;;;;;6.80;6.17;;;11.30;99.90;;;;;;5013702;28;20206;-60
2022/04/23 01:36:02;;;;;;;6.67;6.07;;;11.20;99.90;;;;;;5014166;28;20181;-60
2022/04/23 01:38:28;;;;;;;6.90;6.20;;;11.10;99.90;;;;;;5014246;28;20172;-61
2022/04/23 01:40:54;;;;;;;6.40;5.80;;;11.10;99.90;;;;;;5014181;28;20251;-62
2022/04/23 01:43:20;;;;;;;7.03;6.00;;;11.00;99.90;;;;;;5013842;28;20196;-61
2022/04/23 01:45:46;;;;;;;7.10;6.40;;;11.00;99.90;;;;;;5014197;28;20169;-60
2022/04/23 01:48:11;;;;;;;6.90;6.30;;;10.90;99.90;;;;;;5013863;28;20207;-60
2022/04/23 01:50:37;;;;;;;7.43;6.73;;;11.00;99.90;;;;;;5013915;28;20176;-61
2022/04/23 01:53:04;;;;;;;6.90;6.20;;;11.00;99.90;;;;;;5013219;28;20204;-60
2022/04/23 01:55:31;;;;;;;7.43;6.73;;;11.10;99.90;;;;;;5013873;28;20172;-61
2022/04/23 01:57:57;;;;;;;7.20;6.50;;;11.10;99.90;;;;;;5013701;28;20183;-59
2022/04/23 02:00:22;;;;;;;7.23;6.53;;;11.10;99.90;;;;;;5013645;28;20181;-61
2022/04/23 02:02:48;;;;;;;7.40;6.70;;;11.10;99.90;;;;;;5013293;28;20228;-59
2022/04/23 02:05:14;;;;;;;7.17;6.47;;;11.10;99.90;;;;;;5013568;28;20225;-58
2022/04/23 02:07:41;;;;;;;7.50;6.80;;;11.10;99.90;;;;;;5013332;28;20204;-59
2022/04/23 02:10:09;;;;;;;7.80;7.00;;;11.20;99.90;;;;;;5013377;28;20215;-60
2022/04/23 02:12:36;;;;;;;7.93;7.23;;;11.10;99.90;;;;;;4995529;28;20204;-61
2022/04/23 02:15:02;;;;;;;8.10;7.30;;;11.10;99.90;;;;;;5013351;28;20173;-60
2022/04/23 02:17:34;;;;;;;7.53;6.77;;;11.20;99.90;;;;;;5013361;28;20187;-58
2022/04/23 02:20:11;;;;;;;7.27;6.47;;;13.60;99.90;;;;;;5013181;28;20650;-57
2022/04/23 02:22:37;;;;;;;8.70;7.80;;;11.30;99.90;;;;;;5012731;28;20204;-59
2022/04/23 02:25:05;;;;;;;8.03;7.23;;;11.30;99.90;;;;;;5013341;28;20585;-59
2022/04/23 02:27:43;;;;;;;7.60;6.90;;;11.40;99.90;;;;;;5013118;28;20208;-59
2022/04/23 02:30:10;;;;;;;8.30;7.50;;;11.40;99.90;;;;;;5013137;28;20168;-59
2022/04/23 02:32:35;;;;;;;7.77;7.00;;;11.40;99.90;;;;;;5012618;28;20177;-57
2022/04/23 02:35:01;;;;;;;7.73;7.03;;;13.50;99.90;;;;;;5012937;28;20168;-60
2022/04/23 02:37:27;;;;;;;7.57;6.87;;;11.50;99.90;;;;;;5012940;28;20211;-60
2022/04/23 02:39:53;;;;;;;7.70;6.90;;;11.60;99.90;;;;;;5012882;28;20172;-60
2022/04/23 02:42:19;;;;;;;7.90;7.10;;;11.60;99.90;;;;;;5012548;28;20230;-57
2022/04/23 02:44:45;;;;;;;7.90;7.07;;;11.60;99.90;;;;;;5012908;28;20184;-62
2022/04/23 02:47:11;;;;;;;7.57;6.87;;;11.60;99.90;;;;;;5012678;28;20191;-57
2022/04/23 02:49:36;;;;;;;7.47;6.77;;;11.60;99.90;;;;;;5012811;28;20675;-58
2022/04/23 02:52:03;;;;;;;7.50;6.80;;;11.60;99.90;;;;;;5012593;28;20179;-58
2022/04/23 02:54:28;;;;;;;7.30;6.60;;;11.50;99.90;;;;;;5012401;28;20197;-59
2022/04/23 02:56:55;;;;;;;8.03;6.80;;;11.50;99.90;;;;;;5012687;28;20614;-59
2022/04/23 02:59:21;;;;;;;7.13;6.43;;;11.50;99.90;;;;;;5012603;28;20173;-59
2022/04/23 03:01:46;;;;;;;7.70;7.00;;;11.60;99.90;;;;;;5012513;28;20222;-58
2022/04/23 03:04:12;;;;;;;7.43;6.73;;;11.60;99.90;;;;;;5012177;28;20200;-62
2022/04/23 03:06:38;;;;;;;7.80;6.97;;;11.60;99.90;;;;;;5012480;28;20191;-58
2022/04/23 03:09:03;;;;;;;7.37;6.67;;;11.60;99.90;;;;;;5012475;28;20207;-59
2022/04/23 03:11:30;;;;;;;8.27;7.47;;;11.60;99.90;;;;;;5012447;28;20176;-61
2022/04/23 03:13:58;;;;;;;8.10;7.30;;;11.60;99.90;;;;;;5011987;28;20235;-59
2022/04/23 03:16:26;;;;;;;8.80;7.90;;;11.60;99.90;;;;;;5012375;28;20177;-57
2022/04/23 03:18:52;;;;;;;7.50;6.80;;;11.60;99.90;;;;;;5012322;28;20319;-58
2022/04/23 03:21:18;;;;;;;8.17;7.37;;;11.60;99.90;;;;;;5011785;28;20168;-60
2022/04/23 03:23:43;;;;;;;8.17;7.37;;;11.60;99.90;;;;;;4994371;28;20188;-58
2022/04/23 03:26:09;;;;;;;8.17;7.37;;;11.60;99.90;;;;;;5012401;28;20176;-60
2022/04/23 03:28:35;;;;;;;8.00;7.30;;;11.60;99.90;;;;;;5012153;28;20198;-58
2022/04/23 03:31:02;;;;;;;8.67;7.77;;;11.60;99.90;;;;;;5012178;28;20169;-58
2022/04/23 03:33:28;;;;;;;9.20;8.30;;;11.60;99.90;;;;;;5011889;28;20458;-59
2022/04/23 03:35:54;;;;;;;9.57;8.53;;;11.60;99.90;;;;;;5012083;28;20721;-56
2022/04/23 03:38:19;;;;;;;9.87;8.87;;;11.50;99.90;;;;;;5012141;28;20176;-58
2022/04/23 03:40:48;;;;;;;8.43;7.63;;;11.50;99.90;;;;;;5012186;28;20234;-58
2022/04/23 03:43:13;;;;;;;9.97;8.97;;;11.50;99.90;;;;;;5011672;28;20199;-57
2022/04/23 03:45:39;;;;;;;10.23;9.23;;;11.50;99.90;;;;;;5012079;28;20173;-58
2022/04/23 03:48:05;;;;;;;10.13;9.10;;;11.50;99.90;;;;;;5012019;28;20688;-57
2022/04/23 03:50:30;;;;;;;10.57;9.57;;;11.40;99.90;;;;;;5012063;28;20954;-57
2022/04/23 03:52:56;;;;;;;10.43;9.33;;;11.40;99.90;;;;;;5011658;28;20219;-59
2022/04/23 03:55:23;;;;;;;10.30;9.20;;;11.40;99.90;;;;;;5011982;28;20203;-58
2022/04/23 03:57:51;;;;;;;9.47;8.57;;;11.30;99.90;;;;;;5012050;28;20191;-59
2022/04/23 04:00:19;;;;;;;10.00;8.83;;;13.00;99.90;;;;;;5011978;28;20231;-59
2022/04/23 04:02:45;;;;;;;10.60;9.50;;;11.40;99.90;;;;;;5011620;28;20199;-57
2022/04/23 04:05:12;;;;;;;9.23;8.30;;;11.40;99.90;;;;;;5011917;28;20184;-59
2022/04/23 04:07:45;;;;;;;10.70;9.60;;;12.70;99.90;;;;;;5011901;28;20693;-59
2022/04/23 04:10:12;;;;;;;11.50;10.30;;;11.50;99.90;;;;;;5011830;28;20161;-62
2022/04/23 04:12:38;;;;;;;10.23;9.23;;;11.50;99.90;;;;;;5011561;28;20235;-58
2022/04/23 04:15:09;;;;;;;13.53;12.13;;;11.50;99.90;;;;;;5011831;28;20200;-55
2022/04/23 04:17:36;;;;;;;14.13;11.10;;;11.50;99.90;;;;;;5011897;28;20191;-55
2022/04/23 04:20:03;;;;;;;12.43;11.13;;;11.30;99.90;;;;;;5011696;28;20206;-59
2022/04/23 04:22:29;;;;;;;12.27;10.97;;;11.40;99.90;;;;;;5011406;28;20195;-59
2022/04/23 04:24:55;;;;;;;12.03;10.73;;;11.20;99.90;;;;;;5011578;28;20164;-57
2022/04/23 04:27:20;;;;;;;13.33;11.93;;;11.20;99.90;;;;;;5011636;28;20210;-58
2022/04/23 04:29:46;;;;;;;12.83;11.43;;;11.20;99.90;;;;;;5011746;28;20173;-58
2022/04/23 04:32:13;;;;;;;12.70;11.40;;;11.30;99.90;;;;;;5011739;28;20177;-61
2022/04/23 04:34:39;;;;;;;13.47;11.70;;;11.20;99.90;;;;;;5015463;28;20238;-59
2022/04/23 04:37:11;;;;;;;13.87;12.30;;;11.20;99.90;;;;;;5015496;28;20181;-61
2022/04/23 04:39:38;;;;;;;14.63;12.60;;;11.10;99.90;;;;;;5015292;28;20529;-61
2022/04/23 04:42:08;;;;;;;13.80;12.40;;;11.00;99.90;;;;;;5015290;28;20172;-57
2022/04/23 04:44:36;;;;;;;15.13;13.17;;;11.00;99.90;;;;;;5014799;28;20721;-58
2022/04/23 04:47:01;;;;;;;14.87;13.27;;;10.90;99.90;;;;;;5015069;28;20184;-57
2022/04/23 04:49:27;;;;;;;15.50;13.47;;;10.90;99.90;;;;;;5014847;28;20214;-60
2022/04/23 04:51:53;;;;;;;16.20;14.13;;;10.90;99.90;;;;;;5014992;28;20226;-60
2022/04/23 04:54:21;;;;;;;16.53;13.90;;;10.90;99.90;;;;;;5014605;28;20266;-61
2022/04/23 04:56:50;;;;;;;17.40;14.83;;;10.90;99.90;;;;;;5014882;28;20603;-58
2022/04/23 04:59:16;;;;;;;16.83;15.00;;;10.80;99.90;;;;;;5014935;28;20176;-59
2022/04/23 05:01:42;;;;;;;17.43;14.80;;;13.30;99.90;;;;;;5014761;28;20550;-59
2022/04/23 05:04:07;;;;;;;18.10;14.40;;;10.70;99.90;;;;;;5014265;28;20283;-59
2022/04/23 05:06:33;;;;;;;18.47;14.87;;;10.70;99.90;;;;;;5014683;28;20318;-58
2022/04/23 05:08:58;;;;;;;18.03;15.17;;;10.60;99.90;;;;;;5014495;28;20208;-56
2022/04/23 05:11:24;;;;;;;17.50;14.47;;;12.90;99.90;;;;;;5014547;28;20199;-61
2022/04/23 05:13:51;;;;;;;18.03;14.83;;;10.60;99.90;;;;;;5014151;28;20189;-59
2022/04/23 05:16:17;;;;;;;16.13;14.40;;;10.60;99.90;;;;;;5014474;28;20199;-61
2022/04/23 05:18:42;;;;;;;16.17;14.23;;;10.70;99.90;;;;;;5014517;28;20176;-60
2022/04/23 05:21:08;;;;;;;17.70;15.27;;;10.70;99.90;;;;;;5014469;28;20172;-61
2022/04/23 05:23:34;;;;;;;17.77;14.57;;;10.70;99.90;;;;;;5013966;28;20204;-59
2022/04/23 05:26:00;;;;;;;16.60;14.57;;;10.70;99.90;;;;;;5014601;28;20180;-58
2022/04/23 05:28:25;;;;;;;15.77;13.97;;;10.70;99.90;;;;;;5014260;28;20196;-60
2022/04/23 05:30:51;;;;;;;15.93;13.73;;;13.10;99.90;;;;;;5014332;28;20173;-62
2022/04/23 05:33:17;;;;;;;15.93;13.70;;;10.80;99.90;;;;;;5013783;28;20192;-60
2022/04/23 05:35:42;;;;;;;18.53;15.30;;;10.90;99.90;;;;;;5014156;28;20177;-56
2022/04/23 05:38:08;;;;;;;16.13;14.13;;;11.00;99.90;;;;;;5013976;28;20192;-58
2022/04/23 05:40:34;;;;;;;15.93;12.93;;;11.00;99.90;;;;;;5014086;28;20642;-62
2022/04/23 05:42:59;;;;;;;17.80;14.50;;;13.00;99.90;;;;;;5013506;28;20246;-59
2022/04/23 05:45:25;;;;;;;16.00;13.77;;;11.10;99.90;;;;;;5015258;28;20180;-58
2022/04/23 05:47:51;;;;;;;15.53;13.50;;;11.20;99.90;;;;;;5011513;28;20568;-61
2022/04/23 05:50:17;;;;;;;16.63;14.00;;;11.40;99.90;;;;;;5008926;28;20180;-59
2022/04/23 05:52:43;;;;;;;15.17;12.73;;;11.40;99.90;;;;;;5009875;28;20205;-60
2022/04/23 05:55:10;;;;;;;15.40;13.43;;;11.50;99.90;;;;;;5005107;28;20248;-59
2022/04/23 05:57:36;;;;;;;14.73;12.83;;;11.60;99.90;;;;;;5004580;28;20192;-57
2022/04/23 06:00:05;;;;;;;14.53;12.70;;;11.50;99.90;;;;;;5006105;28;20545;-60
2022/04/23 06:02:31;;;;;;;15.80;12.40;;;11.70;99.90;;;;;;5007113;28;20188;-59
2022/04/23 06:04:57;;;;;;;14.23;12.47;;;11.70;99.90;;;;;;5024415;28;20782;-58
2022/04/23 06:07:23;;;;;;;13.97;12.37;;;11.70;99.90;;;;;;5019892;28;20183;-58
2022/04/23 06:09:49;;;;;;;13.60;12.20;;;11.90;99.90;;;;;;5029458;28;20176;-57
2022/04/23 06:12:14;;;;;;;14.17;12.67;;;12.00;99.90;;;;;;5014944;28;20177;-55
2022/04/23 06:14:40;;;;;;;13.80;11.73;;;12.00;99.90;;;;;;5008513;28;20188;-57
2022/04/23 06:17:10;;;;;;;12.93;11.57;;;12.00;99.90;;;;;;5012774;28;20177;-59
2022/04/23 06:19:37;;;;;;;14.77;11.97;;;12.00;99.90;;;;;;5029635;28;20168;-60
2022/04/23 06:22:03;;;;;;;13.60;11.63;;;12.00;99.90;;;;;;5014537;28;20172;-63
2022/04/23 06:24:29;;;;;;;13.30;11.90;;;12.00;99.90;;;;;;5028807;28;20685;-59
2022/04/23 06:26:54;;;;;;;12.07;10.77;;;12.20;99.90;;;;;;5017691;28;20206;-59
2022/04/23 06:29:20;;;;;;;12.37;11.17;;;12.20;99.90;;;;;;5024138;28;20569;-60
2022/04/23 06:31:45;;;;;;;13.97;12.47;;;12.10;99.90;;;;;;5024579;28;20545;-61
2022/04/23 06:34:11;;;;;;;14.97;11.70;;;12.10;99.90;;;;;;5017663;28;20202;-60
2022/04/23 06:36:36;;;;;;;12.93;11.60;;;12.00;99.90;;;;;;5014295;28;20227;-57
2022/04/23 06:39:03;;;;;;;13.23;11.73;;;12.00;99.90;;;;;;5018847;28;20172;-58
2022/04/23 06:41:28;;;;;;;12.33;11.03;;;11.90;99.90;;;;;;5008006;28;20188;-59
2022/04/23 06:43:54;;;;;;;11.80;10.60;;;11.80;99.90;;;;;;5015076;28;20200;-59
2022/04/23 06:46:19;;;;;;;12.20;10.90;;;11.80;99.90;;;;;;5011101;28;20204;-59
2022/04/23 06:48:45;;;;;;;12.57;11.27;;;11.80;99.90;;;;;;5010666;28;20224;-58
2022/04/23 06:51:11;;;;;;;11.83;10.47;;;11.90;99.90;;;;;;5009012;28;20298;-58
2022/04/23 06:53:36;;;;;;;12.23;10.80;;;12.10;99.90;;;;;;5012049;28;20279;-63
2022/04/23 06:56:03;;;;;;;10.97;9.87;;;12.20;99.90;;;;;;5012010;28;20173;-59
2022/04/23 06:58:29;;;;;;;12.20;10.20;;;12.30;99.90;;;;;;5012489;28;20649;-57
2022/04/23 07:00:54;;;;;;;10.30;9.27;;;12.40;99.90;;;;;;5012476;28;20176;-58
2022/04/23 07:03:20;;;;;;;11.53;9.90;;;12.50;99.90;;;;;;5011924;28;20192;-60
2022/04/23 07:05:46;;;;;;;10.93;9.83;;;12.70;99.90;;;;;;5011366;28;20207;-60
2022/04/23 07:08:12;;;;;;;10.27;9.27;;;12.70;99.90;;;;;;5010482;28;20204;-61
2022/04/23 07:10:37;;;;;;;10.27;9.17;;;12.80;99.90;;;;;;4999750;28;20503;-60
2022/04/23 07:13:03;;;;;;;9.97;8.97;;;12.80;99.90;;;;;;4991216;28;20193;-57
2022/04/23 07:15:29;;;;;;;10.07;9.07;;;12.80;99.90;;;;;;4992605;28;20175;-58
2022/04/23 07:17:55;;;;;;;8.90;8.00;;;12.90;99.90;;;;;;4992438;28;20181;-59
2022/04/23 07:20:21;;;;;;;9.70;8.70;;;13.20;99.90;;;;;;4992659;28;20229;-59
2022/04/23 07:25:33;;;;;;;9.13;8.20;;;13.30;99.90;;;;;;4993016;28;20218;-57
2022/04/23 07:27:59;;;;;;;8.83;7.93;;;13.40;99.90;;;;;;4992734;28;20217;-61
2022/04/23 07:30:25;;;;;;;8.43;7.53;;;13.10;99.90;;;;;;4992428;28;20166;-59
2022/04/23 07:32:54;;;;;;;8.10;7.30;;;13.20;99.90;;;;;;4992449;28;20265;-62
2022/04/23 07:38:23;;;;;;;8.83;7.23;;;13.30;99.90;;;;;;4992816;28;20241;-57
2022/04/23 07:40:50;;;;;;;7.53;6.83;;;13.30;99.90;;;;;;4992486;28;20526;-56
2022/04/23 07:43:16;;;;;;;7.93;7.13;;;13.40;99.90;;;;;;4992120;28;20670;-59
2022/04/23 07:45:44;;;;;;;8.73;7.83;;;15.10;99.90;;;;;;4992507;28;20176;-58
2022/04/23 07:48:11;;;;;;;7.83;7.10;;;13.80;99.90;;;;;;4992435;28;20202;-59
2022/04/23 07:50:40;;;;;;;7.63;6.70;;;13.80;99.90;;;;;;4992307;28;20172;-59
2022/04/23 07:53:07;;;;;;;7.67;6.87;;;13.80;99.90;;;;;;4991883;28;20211;-59
2022/04/23 07:55:35;;;;;;;8.00;7.20;;;13.80;99.90;;;;;;4992150;28;20173;-59
2022/04/23 07:58:02;;;;;;;8.00;7.20;;;13.60;99.90;;;;;;4992235;28;20195;-60
2022/04/23 08:00:29;;;;;;;9.90;8.60;;;13.60;99.90;;;;;;4992133;28;20298;-59
2022/04/23 08:02:55;;;;;;;7.87;7.07;;;13.60;99.90;;;;;;4991704;28;20194;-58
2022/04/23 08:05:21;;;;;;;7.90;7.10;;;13.90;99.90;;;;;;4992160;28;20624;-59
2022/04/23 08:07:46;;;;;;;6.40;5.80;;;14.00;99.90;;;;;;4994484;28;20298;-59
2022/04/23 08:10:12;;;;;;;6.30;5.70;;;13.80;99.90;;;;;;4995859;28;20246;-59
2022/04/23 08:12:38;;;;;;;6.20;5.60;;;13.70;99.90;;;;;;4995502;28;20199;-59
2022/04/23 08:15:04;;;;;;;7.13;6.20;;;13.70;99.90;;;;;;4995864;28;20197;-59
2022/04/23 08:17:30;;;;;;;6.83;6.13;;;13.60;99.90;;;;;;4996017;28;20704;-60
2022/04/23 08:19:56;;;;;;;6.37;5.77;;;13.80;99.90;;;;;;4995835;28;20169;-59
2022/04/23 08:22:21;;;;;;;5.67;5.17;;;13.80;99.90;;;;;;4995278;28;20589;-59
2022/04/23 08:24:47;;;;;;;5.97;5.33;;;13.90;99.90;;;;;;4995517;28;20699;-59
2022/04/23 08:27:12;;;;;;;6.00;5.40;;;14.00;99.90;;;;;;4995628;28;20204;-60
2022/04/23 08:32:22;;;;;;;5.70;5.20;;;13.00;99.90;;;;;;4995476;28;20178;-59
2022/04/23 08:34:48;;;;;;;5.90;5.40;;;13.00;99.90;;;;;;4995488;28;20173;-58
2022/04/23 08:37:13;;;;;;;5.97;5.37;;;13.10;99.90;;;;;;4995504;28;20207;-61
2022/04/23 08:39:40;;;;;;;6.13;5.53;;;13.00;99.90;;;;;;4995534;28;20183;-62
2022/04/23 08:42:09;;;;;;;5.90;5.30;;;12.90;99.90;;;;;;4995359;28;20653;-61
2022/04/23 08:44:37;;;;;;;7.37;6.23;;;13.00;99.90;;;;;;4995143;28;20192;-59
2022/04/23 08:47:04;;;;;;;6.10;5.50;;;13.10;99.90;;;;;;4995423;28;20345;-60
2022/04/23 08:49:34;;;;;;;6.37;5.77;;;13.10;99.90;;;;;;4995257;28;20212;-58
2022/04/23 08:52:15;;;;;;;6.43;5.80;;;13.50;99.90;;;;;;4995551;28;20197;-57
2022/04/23 08:54:41;;;;;;;7.33;6.63;;;13.10;99.90;;;;;;4995583;28;20208;-60
2022/04/23 08:57:07;;;;;;;7.70;6.97;;;13.30;99.90;;;;;;5013720;28;20285;-59
2022/04/23 08:59:33;;;;;;;7.77;6.97;;;13.40;99.90;;;;;;5008370;28;20258;-58
2022/04/23 09:02:00;;;;;;;8.57;7.67;;;13.50;99.90;;;;;;5015961;28;20179;-60
2022/04/23 09:04:26;;;;;;;7.60;6.80;;;13.60;99.90;;;;;;5008249;28;20237;-59
2022/04/23 09:06:52;;;;;;;8.00;7.20;;;13.60;99.90;;;;;;5009967;28;20567;-58
2022/04/23 09:09:22;;;;;;;7.87;7.07;;;13.60;99.90;;;;;;5008334;28;20199;-58
2022/04/23 09:11:58;;;;;;;9.10;8.17;;;13.70;99.90;;;;;;5012619;28;20571;-60
2022/04/23 09:14:34;;;;;;;9.30;8.30;;;16.10;99.90;;;;;;5010624;28;20195;-59
2022/04/23 09:25:38;;;;;;;10.57;9.47;;;14.40;99.90;;;;;;5032680;28;20676;-59
2022/04/23 09:28:29;;;;;;;10.80;9.70;;;14.50;99.90;;;;;;5027887;28;20189;-58
2022/04/23 09:30:55;;;;;;;10.47;9.43;;;14.70;99.90;;;;;;5026131;28;20172;-59
2022/04/23 09:33:41;;;;;;;10.80;9.70;;;15.40;99.90;;;;;;5013924;28;20192;-61
2022/04/23 09:36:06;;;;;;;9.90;8.90;;;14.70;99.90;;;;;;5021858;28;20176;-57
2022/04/23 09:38:32;;;;;;;11.40;8.90;;;14.50;99.90;;;;;;5013420;28;20542;-59
2022/04/23 09:41:20;;;;;;;8.87;7.97;;;14.30;99.90;;;;;;5022213;28;20180;-58
2022/04/23 09:43:51;;;;;;;10.77;9.70;;;14.40;99.90;;;;;;5029047;28;20196;-60
2022/04/23 09:46:17;;;;;;;9.93;8.93;;;14.60;99.90;;;;;;5031478;28;20180;-58
2022/04/23 09:48:43;;;;;;;10.87;9.77;;;14.80;99.90;;;;;;4998069;28;20196;-58
2022/04/23 09:51:26;;;;;;;10.53;9.43;;;14.80;99.90;;;;;;5015747;28;20172;-56
2022/04/23 09:53:54;;;;;;;11.70;10.50;;;15.00;99.90;;;;;;5013013;28;20305;-59
2022/04/23 09:56:24;;;;;;;12.57;9.20;;;15.00;99.90;;;;;;5014683;28;20638;-55
2022/04/23 09:58:54;;;;;;;10.33;9.23;;;14.90;99.90;;;;;;5011935;28;20176;-58
2022/04/23 10:01:21;;;;;;;9.60;8.60;;;14.70;99.90;;;;;;5012903;28;20173;-57
2022/04/23 10:03:51;;;;;;;9.87;8.87;;;14.80;99.90;;;;;;5012581;28;20197;-56
2022/04/23 10:06:18;;;;;;;9.70;8.50;;;16.00;99.90;;;;;;5012800;28;20946;-54
2022/04/23 10:08:48;;;;;;;10.40;9.40;;;14.50;99.90;;;;;;4995456;28;20661;-59
2022/04/23 10:11:27;;;;;;;10.33;9.23;;;14.90;99.90;;;;;;5012591;28;20630;-58
2022/04/23 10:14:15;;;;;;;9.43;8.43;;;15.20;99.90;;;;;;5012373;28;20692;-55
2022/04/23 10:16:42;;;;;;;12.43;9.17;;;15.20;99.90;;;;;;5009222;28;20185;-58
2022/04/23 10:19:09;;;;;;;9.67;8.63;;;15.10;99.90;;;;;;5032224;28;20649;-58
2022/04/23 10:21:34;;;;;;;10.93;9.63;;;14.90;99.90;;;;;;5030055;28;20234;-60
2022/04/23 10:24:16;;;;;;;10.73;9.63;;;14.80;99.90;;;;;;5022710;28;20195;-61
2022/04/23 10:26:43;;;;;;;10.77;9.67;;;14.90;99.90;;;;;;5020549;28;20234;-59
2022/04/23 10:29:13;;;;;;;10.53;9.43;;;14.90;99.90;;;;;;5030732;28;20239;-58
2022/04/23 10:31:39;;;;;;;10.17;9.17;;;15.10;99.90;;;;;;5013669;28;20208;-61
2022/04/23 10:34:05;;;;;;;9.63;8.27;;;15.20;99.90;;;;;;5014765;28;20569;-59
2022/04/23 10:36:30;;;;;;;9.83;8.73;;;15.20;99.90;;;;;;5008519;28;20180;-59
2022/04/23 10:39:18;;;;;;;11.97;9.07;;;15.40;99.90;;;;;;5010610;28;20589;-57
2022/04/23 10:41:44;;;;;;;9.40;8.40;;;15.50;99.90;;;;;;5007606;28;20209;-57
2022/04/23 10:44:10;;;;;;;8.87;7.97;;;15.50;99.90;;;;;;5010682;28;20294;-58
2022/04/23 10:46:42;;;;;;;9.60;8.50;;;15.70;99.90;;;;;;5017087;28;20183;-58
2022/04/23 10:49:14;;;;;;;9.90;8.90;;;15.90;99.90;;;;;;5013764;28;20197;-59
2022/04/23 10:52:06;;;;;;;9.77;8.77;;;15.80;99.90;;;;;;5010508;28;20177;-60
2022/04/23 10:54:42;;;;;;;10.07;9.07;;;15.50;99.90;;;;;;5001561;28;20208;-60
2022/04/23 10:57:09;;;;;;;9.33;8.43;;;15.60;99.90;;;;;;5010756;28;20538;-56
2022/04/23 10:59:48;;;;;;;9.67;8.73;;;15.90;99.90;;;;;;5011000;28;20174;-57
2022/04/23 11:02:20;;;;;;;9.70;8.70;;;16.00;99.90;;;;;;5010923;28;20172;-56
2022/04/23 11:13:48;;;;;;;10.20;9.20;;;15.20;99.90;;;;;;4951809;29;20242;-58
2022/04/23 11:16:18;;;;;;;10.80;9.70;;;15.10;99.90;;;;;;4951828;29;20178;-58
2022/04/23 11:18:49;;;;;;;10.10;9.03;;;15.20;99.90;;;;;;4951805;29;20183;-58
2022/04/23 11:21:20;;;;;;;10.57;9.50;;;16.20;99.90;;;;;;4951720;29;20258;-58
2022/04/23 11:23:47;;;;;;;10.43;9.43;;;15.50;99.90;;;;;;4951241;29;20264;-60
2022/04/23 11:26:18;;;;;;;9.87;8.50;;;15.50;99.90;;;;;;4951552;29;20175;-58
2022/04/23 11:28:44;;;;;;;10.63;9.53;;;15.70;99.90;;;;;;4951769;29;20577;-56
2022/04/23 11:31:11;;;;;;;10.63;9.53;;;16.00;99.90;;;;;;4951711;29;20191;-60
2022/04/23 11:33:37;;;;;;;9.20;8.20;;;16.20;99.90;;;;;;4951308;29;20191;-56
2022/04/23 11:36:04;;;;;;;10.13;9.10;;;15.90;99.90;;;;;;4951635;29;20198;-57
2022/04/23 11:38:31;;;;;;;9.77;8.77;;;16.30;99.90;;;;;;4951527;29;20176;-58
2022/04/23 11:40:56;;;;;;;11.00;9.20;;;16.30;99.90;;;;;;4951351;28;20272;-58
2022/04/23 11:43:39;;;;;;;9.70;8.53;;;16.50;99.90;;;;;;4973491;28;20209;-55
2022/04/23 11:46:06;;;;;;;8.97;8.10;;;15.70;99.90;;;;;;5012155;28;20165;-56
2022/04/23 11:49:01;;;;;;;9.40;8.50;;;15.80;99.90;;;;;;5011913;28;20277;-59
2022/04/23 11:51:26;;;;;;;8.43;7.63;;;16.00;99.90;;;;;;4951352;29;20752;-58
2022/04/23 11:54:00;;;;;;;9.17;7.93;;;16.20;99.90;;;;;;4950921;29;20215;-57
2022/04/23 11:56:29;;;;;;;8.67;7.87;;;16.20;99.90;;;;;;4951378;29;20189;-59
2022/04/23 11:59:07;;;;;;;8.73;7.93;;;16.70;99.90;;;;;;4951334;29;20223;-55
2022/04/23 12:01:33;;;;;;;8.93;8.03;;;16.90;99.90;;;;;;4951415;29;20187;-58
2022/04/23 12:03:59;;;;;;;8.37;7.57;;;16.40;99.90;;;;;;4950901;29;20261;-59
2022/04/23 12:06:26;;;;;;;9.10;8.20;;;16.30;99.90;;;;;;4951375;29;20675;-60
2022/04/23 12:09:04;;;;;;;9.40;8.50;;;16.50;99.90;;;;;;4951139;28;20292;-59
2022/04/23 12:11:29;;;;;;;8.50;7.70;;;16.40;99.90;;;;;;4951463;29;20179;-58
2022/04/23 12:13:55;;;;;;;8.13;7.33;;;16.60;99.90;;;;;;4950764;29;20277;-59
2022/04/23 12:16:35;;;;;;;10.33;8.13;;;17.20;99.90;;;;;;4951258;28;20271;-58
2022/04/23 12:19:13;;;;;;;8.47;7.67;;;17.40;99.90;;;;;;4951184;28;20190;-58
2022/04/23 12:21:39;;;;;;;8.43;7.63;;;17.30;99.90;;;;;;4951305;29;20312;-58
2022/04/23 12:24:07;;;;;;;7.83;7.07;;;17.60;99.90;;;;;;4950798;29;20203;-59
2022/04/23 12:26:35;;;;;;;8.47;7.67;;;18.00;99.90;;;;;;4951233;29;20182;-58
2022/04/23 12:43:20;;;;;;;8.23;7.43;;;18.60;99.90;;;;;;5011468;28;20247;-59
2022/04/23 12:45:49;;;;;;;7.63;6.93;;;18.60;99.90;;;;;;4993895;28;20226;-59
2022/04/23 12:48:15;;;;;;;7.13;6.43;;;18.90;99.80;;;;;;5011440;28;20247;-61
2022/04/23 12:50:44;;;;;;;8.25;7.50;;;19.60;98.70;;;;;;5011584;28;20181;-60
2022/04/23 12:53:11;;;;;;;8.27;7.47;;;20.20;98.10;;;;;;5011174;28;20212;-60
2022/04/23 12:55:37;;;;;;;9.50;8.60;;;20.60;97.90;;;;;;5015021;28;20173;-59
2022/04/23 12:58:02;;;;;;;9.00;8.07;;;21.00;97.40;;;;;;5015044;28;20307;-59
2022/04/23 13:00:30;;;;;;;9.32;8.45;;;21.00;96.70;;;;;;5014937;28;20275;-60
2022/04/23 13:02:59;;;;;;;10.02;9.13;;;21.30;96.70;;;;;;5014469;28;20606;-59
2022/04/23 13:05:26;;;;;;;9.07;8.23;;;21.40;95.50;;;;;;5014703;28;20180;-60
2022/04/23 13:10:36;;;;;;;9.57;8.68;;;21.00;95.90;;;;;;5015174;28;20183;-61
2022/04/23 13:13:03;;;;;;;9.85;8.95;;;20.90;95.50;;;;;;5014276;28;20215;-58
2022/04/23 13:15:29;;;;;;;9.35;8.45;;;20.80;96.00;;;;;;5014789;28;20169;-60
2022/04/23 13:17:55;;;;;;;9.63;8.73;;;20.60;95.90;;;;;;5014580;28;20182;-60
2022/04/23 13:20:21;;;;;;;9.85;8.85;;;20.40;95.50;;;;;;5015591;28;20179;-60
2022/04/23 13:22:47;;;;;;;9.63;8.63;;;20.30;95.80;;;;;;5013939;28;20554;-58
2022/04/23 13:25:15;;;;;;;9.60;8.60;;;20.00;95.70;;;;;;5014435;28;20173;-58